Hualapai, Arizona
Current Conditions -  °F | °C
As of 8:54 PM on Tuesday 27 Jan 2015 (Local Time) from KGCN Reporting Station
Few Clouds Few Clouds  
Wind Chill: 33°   Ceiling: Unl
Heat Index: 33°   Visibility: 10mi
Dew Point: 31°   Wind: 0mph
Humidity: 92%   Direction: NA
Pressure: 30.31"   Gusts: NA
Location:  35.9°N, 113.11°W
Report Text: KGCN 280354Z AUTO 00000KT 10SM FEW036 01/M01 A3031 RMK AO2 SLP247 T00061006
Loading
Personal Weather Stations






























Interactive Weather Map New forecast layout! Learn more

10-Day Weather Forecast

Advertisements
Track Severe Weather on mobile